Time;durP1;ratioP1;P1;durP2;ratioP2;P2;SDS_P1;SDS_P2;PMS_P1;PMS_P2;Temp;Humidity;BMP_temperature;BMP_pressure;BME280_temperature;BME280_humidity;BME280_pressure;Samples;Min_cycle;Max_cycle;Signal;HPM_P1;HPM_P2
2022/11/15 00:01:45;;;;;;;7.90;6.28;;;;;;;8.06;100.00;98946.69;5052171;28;20256;-55
2022/11/15 00:04:10;;;;;;;6.97;6.18;;;;;;;8.00;100.00;98936.69;5051989;28;20181;-56
2022/11/15 00:06:36;;;;;;;7.93;6.72;;;;;;;7.98;100.00;98938.47;5051894;28;20582;-56
2022/11/15 00:09:02;;;;;;;8.07;6.78;;;;;;;7.91;100.00;98937.13;5052205;28;20201;-56
2022/11/15 00:11:28;;;;;;;9.25;7.35;;;;;;;7.85;100.00;98932.28;5052097;28;20173;-56
2022/11/15 00:13:57;;;;;;;8.05;6.18;;;;;;;7.89;100.00;98938.94;5052120;28;20261;-56
2022/11/15 00:16:23;;;;;;;8.38;6.50;;;;;;;7.86;100.00;98939.09;5051951;28;20205;-56
2022/11/15 00:18:49;;;;;;;7.80;7.00;;;;;;;7.82;100.00;98937.56;5051921;28;20170;-56
2022/11/15 00:21:16;;;;;;;7.25;6.20;;;;;;;7.83;100.00;98933.25;5051801;28;20177;-56
2022/11/15 00:23:41;;;;;;;7.85;6.03;;;;;;;7.86;100.00;98939.09;5051777;28;20613;-56
2022/11/15 00:26:11;;;;;;;8.25;6.28;;;;;;;7.81;100.00;98935.09;5051689;28;20170;-56
2022/11/15 00:28:37;;;;;;;7.38;5.82;;;;;;;7.74;100.00;98934.53;5051689;28;20205;-55
2022/11/15 00:31:08;;;;;;;7.80;6.35;;;;;;;7.61;100.00;98928.31;5051683;28;20175;-55
2022/11/15 00:33:34;;;;;;;8.18;6.57;;;;;;;7.51;100.00;98929.66;5051786;28;20175;-55
2022/11/15 00:36:04;;;;;;;7.53;6.18;;;;;;;7.36;100.00;98927.84;5051609;28;20199;-56
2022/11/15 00:38:32;;;;;;;8.02;6.32;;;;;;;7.25;100.00;98930.06;5051661;28;20158;-56
2022/11/15 00:40:57;;;;;;;8.57;6.57;;;;;;;7.12;100.00;98926.38;5051568;28;20213;-55
2022/11/15 00:43:23;;;;;;;7.45;6.10;;;;;;;6.96;100.00;98919.44;5051646;28;20201;-55
2022/11/15 00:45:48;;;;;;;7.28;6.28;;;;;;;6.93;100.00;98917.84;5051611;28;20252;-55
2022/11/15 00:48:13;;;;;;;7.70;6.43;;;;;;;6.95;100.00;98922.94;5052421;28;20178;-56
2022/11/15 00:50:39;;;;;;;8.30;7.10;;;;;;;6.94;100.00;98918.69;5055736;28;20231;-56
2022/11/15 00:53:04;;;;;;;10.50;6.55;;;;;;;6.97;100.00;98909.09;5055682;28;20181;-56
2022/11/15 00:55:30;;;;;;;8.15;6.28;;;;;;;7.08;100.00;98911.16;5055623;28;20223;-56
2022/11/15 00:57:55;;;;;;;9.55;6.68;;;;;;;7.24;100.00;98906.97;5055712;28;20177;-54
2022/11/15 01:00:21;;;;;;;12.85;5.97;;;;;;;7.36;100.00;98904.66;5055624;28;20170;-56
2022/11/15 01:02:46;;;;;;;7.55;6.35;;;;;;;7.42;100.00;98906.09;5055607;28;20177;-56
2022/11/15 01:05:11;;;;;;;8.50;6.28;;;;;;;7.54;100.00;98906.34;5055441;28;20228;-54
2022/11/15 01:07:37;;;;;;;9.27;6.50;;;;;;;7.62;100.00;98909.38;5055525;28;20161;-55
2022/11/15 01:10:03;;;;;;;8.95;6.85;;;;;;;7.52;100.00;98905.56;5055684;28;20254;-55
2022/11/15 01:12:29;;;;;;;6.75;5.75;;;;;;;7.51;100.00;98901.34;5055685;28;20170;-55
2022/11/15 01:14:54;;;;;;;6.05;5.45;;;;;;;7.36;100.00;98896.09;5055252;28;20178;-55
2022/11/15 01:17:20;;;;;;;6.90;6.05;;;;;;;7.35;100.00;98897.00;5055198;28;20174;-55
2022/11/15 01:19:45;;;;;;;7.93;6.20;;;;;;;7.16;100.00;98898.78;5053858;28;20174;-55
2022/11/15 01:22:11;;;;;;;8.05;6.25;;;;;;;7.20;100.00;98897.72;5055107;28;20236;-55
2022/11/15 01:24:36;;;;;;;9.82;6.88;;;;;;;7.25;100.00;98896.63;5055293;28;20239;-55
2022/11/15 01:27:01;;;;;;;7.63;6.20;;;;;;;7.28;100.00;98890.50;5055230;28;20676;-54
2022/11/15 01:29:27;;;;;;;6.80;6.05;;;;;;;7.19;100.00;98894.34;5054900;28;20204;-55
2022/11/15 01:31:53;;;;;;;8.10;6.90;;;;;;;7.26;100.00;98902.59;5054903;28;20256;-55
2022/11/15 01:34:19;;;;;;;7.55;6.65;;;;;;;7.36;100.00;98891.78;5055356;28;20674;-55
2022/11/15 01:36:44;;;;;;;7.30;6.05;;;;;;;7.43;100.00;98902.63;5053513;28;20178;-55
2022/11/15 01:39:09;;;;;;;8.35;5.88;;;;;;;7.43;100.00;98898.31;5054799;28;20174;-55
2022/11/15 01:41:35;;;;;;;6.43;5.63;;;;;;;7.46;100.00;98899.91;5054757;28;20181;-55
2022/11/15 01:44:34;;;;;;;7.38;5.93;;;;;;;7.33;100.00;98897.06;5054761;28;20174;-55
2022/11/15 01:47:03;;;;;;;6.50;5.72;;;;;;;7.21;100.00;98889.94;5055047;28;20639;-55
2022/11/15 01:49:32;;;;;;;7.53;5.82;;;;;;;6.98;100.00;98890.19;5054642;28;20280;-55
2022/11/15 01:51:58;;;;;;;6.35;5.63;;;;;;;6.99;100.00;98891.03;5054479;28;20185;-55
2022/11/15 01:54:24;;;;;;;6.63;5.88;;;;;;;6.85;100.00;98881.38;5054599;28;20178;-55
2022/11/15 01:57:11;;;;;;;7.30;6.20;;;;;;;6.88;100.00;98877.84;5054418;28;20180;-55
2022/11/15 01:59:40;;;;;;;7.85;5.72;;;;;;;6.87;100.00;98876.97;5054514;28;20685;-55
2022/11/15 02:02:06;;;;;;;7.55;5.88;;;;;;;6.82;100.00;98880.69;5054294;28;20170;-55
2022/11/15 02:04:37;;;;;;;7.55;6.05;;;;;;;6.86;100.00;98880.47;5054252;28;20196;-55
2022/11/15 02:07:05;;;;;;;6.20;5.50;;;;;;;6.77;100.00;98880.88;5054235;28;20197;-55
2022/11/15 02:09:30;;;;;;;6.60;5.35;;;;;;;6.74;100.00;98883.59;5054161;28;20571;-55
2022/11/15 02:11:59;;;;;;;7.85;6.18;;;;;;;6.72;100.00;98889.72;5054333;28;20169;-55
2022/11/15 02:14:28;;;;;;;6.63;5.90;;;;;;;6.68;100.00;98883.03;5054114;28;20247;-54
2022/11/15 02:17:19;;;;;;;6.38;5.72;;;;;;;6.67;100.00;98889.94;5054379;28;20206;-55
2022/11/15 02:19:54;;;;;;;6.50;5.75;;;;;;;6.64;100.00;98884.91;5052923;28;20194;-55
2022/11/15 02:22:50;;;;;;;6.15;5.25;;;;;;;6.73;100.00;98883.66;5054081;28;20162;-55
2022/11/15 02:25:47;;;;;;;7.38;6.07;;;;;;;6.63;100.00;98883.25;5054103;28;20173;-54
2022/11/15 02:28:44;;;;;;;8.60;6.10;;;;;;;6.60;100.00;98880.84;5054196;28;20249;-55
2022/11/15 02:31:32;;;;;;;5.78;5.15;;;;;;;6.59;100.00;98883.47;5053083;28;20285;-55
2022/11/15 02:34:07;;;;;;;7.35;5.85;;;;;;;6.36;100.00;98879.34;5053853;28;20225;-55
2022/11/15 02:36:39;;;;;;;6.65;5.35;;;;;;;6.33;100.00;98871.78;5052401;28;20264;-54
2022/11/15 02:39:21;;;;;;;7.85;5.75;;;;;;;6.21;100.00;98880.03;5053659;28;20617;-55
2022/11/15 02:41:56;;;;;;;9.10;6.03;;;;;;;6.19;100.00;98865.56;5052382;28;20173;-54
2022/11/15 02:44:30;;;;;;;7.90;5.68;;;;;;;6.19;100.00;98876.66;5053728;28;20600;-54
2022/11/15 02:47:13;;;;;;;7.05;5.95;;;;;;;6.13;100.00;98878.69;5053536;28;20181;-54
2022/11/15 02:49:48;;;;;;;5.72;5.10;;;;;;;6.11;100.00;98878.75;5053821;28;20740;-54
2022/11/15 02:52:19;;;;;;;6.43;5.68;;;;;;;6.13;100.00;98882.06;5053597;28;20166;-54
2022/11/15 02:54:55;;;;;;;6.70;5.97;;;;;;;6.14;100.00;98880.34;5053624;28;20731;-54
2022/11/15 02:57:48;;;;;;;6.70;5.82;;;;;;;6.19;100.00;98884.38;5053293;28;20177;-54
2022/11/15 03:00:19;;;;;;;6.05;5.40;;;;;;;6.18;100.00;98869.06;5053398;28;20223;-54
2022/11/15 03:03:08;;;;;;;6.40;5.72;;;;;;;6.26;100.00;98872.09;5053474;28;20176;-54
2022/11/15 03:06:01;;;;;;;6.80;5.70;;;;;;;6.21;100.00;98871.47;5053124;28;20229;-54
2022/11/15 03:08:37;;;;;;;6.80;5.15;;;;;;;6.22;100.00;98871.41;5053111;28;20166;-54
2022/11/15 03:11:08;;;;;;;7.90;5.57;;;;;;;6.30;100.00;98863.38;5052567;28;20249;-54
2022/11/15 03:14:38;;;;;;;6.03;5.40;;;;;;;6.30;100.00;98861.63;5053091;28;20181;-54
2022/11/15 03:17:20;;;;;;;5.95;5.28;;;;;;;6.33;100.00;98858.94;5028243;28;20278;-54
2022/11/15 03:19:55;;;;;;;6.47;5.43;;;;;;;6.20;100.00;98860.38;5050972;28;20190;-54
2022/11/15 03:22:24;;;;;;;6.07;5.47;;;;;;;6.19;100.00;98850.97;5052693;28;20255;-54
2022/11/15 03:24:58;;;;;;;7.72;5.43;;;;;;;6.17;100.00;98857.94;5052736;28;20627;-55
2022/11/15 03:27:28;;;;;;;7.78;5.53;;;;;;;6.18;100.00;98861.34;5053254;28;20174;-55
2022/11/15 03:30:01;;;;;;;6.28;5.30;;;;;;;6.15;100.00;98852.03;5052890;28;20630;-54
2022/11/15 03:32:31;;;;;;;5.80;5.07;;;;;;;6.15;100.00;98854.59;5053180;28;20586;-55
2022/11/15 03:35:14;;;;;;;7.53;5.05;;;;;;;6.19;100.00;98853.53;5052893;28;20192;-54
2022/11/15 03:38:00;;;;;;;5.32;4.90;;;;;;;6.14;100.00;98852.94;5052636;28;20716;-55
2022/11/15 03:40:33;;;;;;;6.63;5.47;;;;;;;6.17;100.00;98854.53;5052815;28;20572;-54
2022/11/15 03:43:15;;;;;;;7.60;5.57;;;;;;;6.12;100.00;98853.91;5052476;28;20558;-54
2022/11/15 03:45:51;;;;;;;5.57;4.68;;;;;;;6.10;100.00;98846.25;5052718;28;20166;-54
2022/11/15 03:48:30;;;;;;;5.78;5.20;;;;;;;6.11;100.00;98847.09;5052411;28;20232;-55
2022/11/15 03:50:56;;;;;;;6.25;5.03;;;;;;;6.09;100.00;98843.75;5052348;28;20557;-54
2022/11/15 03:53:22;;;;;;;5.45;4.90;;;;;;;6.13;100.00;98838.41;5052275;28;20170;-54
2022/11/15 03:55:47;;;;;;;6.55;5.90;;;;;;;6.17;100.00;98841.69;5052716;28;20182;-54
2022/11/15 03:58:12;;;;;;;5.97;4.85;;;;;;;6.26;100.00;98841.28;5052192;28;20635;-55
2022/11/15 04:00:38;;;;;;;6.47;5.25;;;;;;;6.28;100.00;98824.88;5052412;28;20626;-54
2022/11/15 04:03:03;;;;;;;5.35;4.85;;;;;;;6.37;100.00;98827.06;5052097;28;20208;-55
2022/11/15 04:05:29;;;;;;;6.78;5.05;;;;;;;6.30;100.00;98829.97;5052053;28;20614;-55
2022/11/15 04:07:54;;;;;;;5.95;5.03;;;;;;;6.32;100.00;98826.44;5052069;28;20170;-54
2022/11/15 04:10:20;;;;;;;6.93;5.72;;;;;;;6.30;100.00;98822.25;5052201;28;20201;-55
2022/11/15 04:12:48;;;;;;;5.70;4.40;;;;;;;6.29;100.00;98826.56;5050704;28;20658;-55
2022/11/15 04:15:16;;;;;;;5.90;4.70;;;;;;;6.28;100.00;98824.88;5051967;28;20181;-54
2022/11/15 04:17:49;;;;;;;6.10;4.80;;;;;;;6.24;100.00;98825.09;5051892;28;20544;-55
2022/11/15 04:25:56;;;;;;;5.72;4.75;;;;;;;6.31;100.00;98819.63;5052086;28;20204;-54
2022/11/15 04:28:21;;;;;;;5.13;4.63;;;;;;;6.30;100.00;98812.78;5051700;28;20535;-54
2022/11/15 04:30:47;;;;;;;5.97;5.00;;;;;;;6.30;100.00;98812.78;5051699;28;20243;-54
2022/11/15 04:33:13;;;;;;;5.75;5.25;;;;;;;6.41;100.00;98808.00;5051678;28;20176;-55
2022/11/15 04:35:39;;;;;;;7.32;4.78;;;;;;;6.38;100.00;98810.72;5051674;28;20176;-54
2022/11/15 04:38:08;;;;;;;5.13;4.55;;;;;;;6.37;100.00;98809.06;5051608;28;20182;-54
2022/11/15 04:40:34;;;;;;;4.75;4.30;;;;;;;6.33;100.00;98797.25;5051569;28;20170;-54
2022/11/15 04:42:59;;;;;;;6.18;5.20;;;;;;;6.45;100.00;98806.13;5051550;28;20222;-54
2022/11/15 04:45:24;;;;;;;6.60;4.60;;;;;;;6.45;100.00;98800.97;5051542;28;20180;-55
2022/11/15 04:47:50;;;;;;;6.15;4.60;;;;;;;6.50;100.00;98805.03;5051567;28;20173;-55
2022/11/15 04:50:16;;;;;;;5.65;4.72;;;;;;;6.48;100.00;98806.81;5051699;28;20225;-55
2022/11/15 04:52:51;;;;;;;5.95;4.93;;;;;;;6.47;100.00;98805.16;5051692;28;20579;-55
2022/11/15 04:55:17;;;;;;;5.70;4.95;;;;;;;6.49;100.00;98810.22;5051756;28;20162;-55
2022/11/15 04:57:42;;;;;;;6.80;4.90;;;;;;;6.47;100.00;98809.47;5051672;28;20177;-55
2022/11/15 05:00:11;;;;;;;5.13;4.60;;;;;;;6.50;100.00;98810.16;5051416;28;20166;-55
2022/11/15 05:05:21;;;;;;;4.68;4.25;;;;;;;6.38;100.00;98820.16;5051965;28;20584;-55
2022/11/15 05:07:46;;;;;;;5.43;4.47;;;;;;;6.39;100.00;98808.97;5051782;28;20166;-55
2022/11/15 05:10:12;;;;;;;4.30;3.90;;;;;;;6.38;100.00;98810.72;5051380;28;20190;-55
2022/11/15 05:12:37;;;;;;;5.13;4.60;;;;;;;6.20;100.00;98814.13;5051303;28;20174;-55
2022/11/15 05:15:03;;;;;;;6.72;4.88;;;;;;;6.21;100.00;98807.25;5051595;28;20177;-55
2022/11/15 05:17:28;;;;;;;8.07;5.15;;;;;;;6.15;100.00;98808.38;5051619;28;20659;-55
2022/11/15 05:19:54;;;;;;;4.80;4.40;;;;;;;6.13;100.00;98801.63;5051510;28;20631;-55
2022/11/15 05:22:20;;;;;;;5.15;4.70;;;;;;;6.13;100.00;98807.56;5051177;28;20639;-55
2022/11/15 05:24:45;;;;;;;5.68;4.85;;;;;;;6.19;100.00;98807.31;5051208;28;20177;-55
2022/11/15 05:27:10;;;;;;;7.60;4.93;;;;;;;6.15;100.00;98810.94;5051184;28;20177;-55
2022/11/15 05:29:36;;;;;;;5.40;4.70;;;;;;;6.14;100.00;98805.84;5051136;28;20196;-55
2022/11/15 05:32:04;;;;;;;5.88;4.60;;;;;;;6.12;100.00;98813.63;5049921;28;20178;-55
2022/11/15 05:34:30;;;;;;;5.35;4.65;;;;;;;6.21;100.00;98813.22;5052165;28;20189;-55
2022/11/15 05:36:56;;;;;;;5.55;4.95;;;;;;;6.22;100.00;98808.91;5054851;28;20170;-55
2022/11/15 05:39:21;;;;;;;6.78;5.32;;;;;;;6.24;100.00;98813.06;5053674;28;20271;-55
2022/11/15 05:41:52;;;;;;;5.43;4.65;;;;;;;6.25;100.00;98812.19;5054960;28;20169;-55
2022/11/15 05:44:21;;;;;;;6.45;5.30;;;;;;;6.28;100.00;98813.75;5055067;28;20158;-55
2022/11/15 05:46:48;;;;;;;5.82;4.95;;;;;;;6.26;100.00;98816.44;5054899;28;20176;-55
2022/11/15 05:49:17;;;;;;;5.10;4.57;;;;;;;6.23;100.00;98803.69;5054907;28;20193;-55
2022/11/15 05:51:44;;;;;;;5.82;5.28;;;;;;;6.24;100.00;98813.06;5054645;28;20184;-55
2022/11/15 05:54:11;;;;;;;5.60;5.00;;;;;;;6.33;100.00;98804.97;5054559;28;20170;-57
2022/11/15 05:56:36;;;;;;;6.03;4.80;;;;;;;6.31;100.00;98819.63;5054801;28;20198;-55
2022/11/15 05:59:02;;;;;;;7.05;5.38;;;;;;;6.33;100.00;98816.97;5054461;28;20174;-55
2022/11/15 06:01:28;;;;;;;6.10;5.50;;;;;;;6.28;100.00;98830.03;5054693;28;20182;-55
2022/11/15 06:03:53;;;;;;;5.78;5.10;;;;;;;6.24;100.00;98825.91;5054510;28;20556;-55
2022/11/15 06:06:18;;;;;;;8.48;6.53;;;;;;;6.29;100.00;98831.69;5054493;28;20194;-55
2022/11/15 06:08:44;;;;;;;5.18;4.68;;;;;;;6.30;100.00;98840.25;5054484;28;20201;-55
2022/11/15 06:11:09;;;;;;;6.15;5.32;;;;;;;6.30;100.00;98842.81;5054407;28;20639;-55
2022/11/15 06:13:35;;;;;;;5.78;4.50;;;;;;;6.26;100.00;98839.56;5054236;28;20174;-55
2022/11/15 06:16:00;;;;;;;4.93;4.43;;;;;;;6.30;100.00;98840.25;5053059;28;20502;-54
2022/11/15 06:18:26;;;;;;;5.55;4.72;;;;;;;6.33;100.00;98843.50;5054483;28;20182;-55
2022/11/15 06:20:52;;;;;;;7.28;4.65;;;;;;;6.34;100.00;98842.59;5055006;28;20260;-55
2022/11/15 06:23:17;;;;;;;7.00;5.15;;;;;;;6.41;100.00;98841.41;5054397;28;20246;-55
2022/11/15 06:25:43;;;;;;;6.75;4.85;;;;;;;6.48;100.00;98842.81;5053861;28;20182;-55
2022/11/15 06:28:08;;;;;;;6.10;5.00;;;;;;;6.58;100.00;98838.91;5054338;28;20170;-55
2022/11/15 06:30:33;;;;;;;5.10;4.60;;;;;;;6.67;100.00;98843.66;5054183;28;20201;-55
2022/11/15 06:33:04;;;;;;;8.57;4.68;;;;;;;6.59;100.00;98839.75;5053998;28;20166;-55
2022/11/15 06:35:32;;;;;;;8.57;5.30;;;;;;;6.66;100.00;98841.16;5053859;28;20169;-55
2022/11/15 06:38:05;;;;;;;5.15;4.60;;;;;;;6.47;100.00;98840.31;5053792;28;20178;-55
2022/11/15 06:40:33;;;;;;;4.57;4.18;;;;;;;6.47;100.00;98828.28;5054473;28;20173;-55
2022/11/15 06:42:59;;;;;;;6.22;4.45;;;;;;;6.45;100.00;98835.25;5053966;28;20181;-55
2022/11/15 06:45:26;;;;;;;7.28;5.03;;;;;;;6.50;100.00;98835.88;5053359;28;20197;-55
2022/11/15 06:47:51;;;;;;;6.55;5.00;;;;;;;6.51;100.00;98829.81;5053256;28;20658;-55
2022/11/15 06:50:17;;;;;;;4.63;4.20;;;;;;;6.60;100.00;98842.28;5053492;28;20200;-55
2022/11/15 06:52:42;;;;;;;6.47;4.43;;;;;;;6.63;100.00;98839.53;5053497;28;20205;-55
2022/11/15 06:55:08;;;;;;;5.68;4.70;;;;;;;6.74;100.00;98837.31;5054181;28;20201;-55
2022/11/15 06:57:34;;;;;;;5.55;4.53;;;;;;;6.73;100.00;98843.38;5053346;28;20170;-55
2022/11/15 06:59:59;;;;;;;5.05;4.10;;;;;;;6.79;100.00;98832.78;5053175;28;20655;-55
2022/11/15 07:02:25;;;;;;;5.28;4.30;;;;;;;6.78;100.00;98828.56;5053354;28;20228;-55
2022/11/15 07:04:50;;;;;;;5.05;4.47;;;;;;;6.76;100.00;98829.53;5053255;28;20189;-56
2022/11/15 07:07:16;;;;;;;7.35;4.43;;;;;;;6.72;100.00;98826.28;5053140;28;20193;-55
2022/11/15 07:09:41;;;;;;;5.05;4.60;;;;;;;6.79;100.00;98822.50;5053123;28;20284;-56
2022/11/15 07:12:06;;;;;;;4.32;3.75;;;;;;;6.89;100.00;98821.19;5052640;28;20621;-55
2022/11/15 07:14:32;;;;;;;5.63;4.32;;;;;;;6.92;100.00;98813.31;5052236;28;20197;-55
2022/11/15 07:16:57;;;;;;;5.00;4.13;;;;;;;7.04;100.00;98823.00;5053747;28;20253;-55
2022/11/15 07:19:23;;;;;;;8.20;4.60;;;;;;;7.08;100.00;98826.25;5053256;28;20166;-55
2022/11/15 07:21:48;;;;;;;5.15;4.20;;;;;;;7.18;100.00;98823.16;5053207;28;20638;-55
2022/11/15 07:24:13;;;;;;;4.60;4.20;;;;;;;7.24;100.00;98819.47;5053020;28;20173;-55
2022/11/15 07:26:39;;;;;;;4.78;4.25;;;;;;;7.34;100.00;98816.38;5053021;28;20177;-55
2022/11/15 07:29:04;;;;;;;5.00;4.47;;;;;;;7.48;100.00;98818.28;5053167;28;20690;-55
2022/11/15 07:31:30;;;;;;;7.13;4.45;;;;;;;7.57;100.00;98818.66;5052975;28;20193;-55
2022/11/15 07:33:56;;;;;;;9.13;5.03;;;;;;;7.57;100.00;98810.91;5052833;28;20670;-55
2022/11/15 07:36:21;;;;;;;4.53;4.03;;;;;;;7.71;100.00;98816.22;5052833;28;20198;-56
2022/11/15 07:38:46;;;;;;;6.22;4.70;;;;;;;7.82;100.00;98816.47;5052821;28;20554;-56
2022/11/15 07:41:12;;;;;;;4.75;4.05;;;;;;;8.01;100.00;98816.38;5052423;28;20189;-56
2022/11/15 07:43:37;;;;;;;5.50;4.55;;;;;;;8.14;100.00;98812.25;5052718;28;20173;-56
2022/11/15 07:46:09;;;;;;;4.82;4.40;;;;;;;8.20;100.00;98820.53;5052878;28;20247;-56
2022/11/15 07:48:35;;;;;;;4.53;3.72;;;;;;;8.32;100.00;98822.47;5052526;28;20269;-55
2022/11/15 07:51:00;;;;;;;4.55;4.05;;;;;;;8.35;100.00;98817.16;5052615;28;20176;-55
2022/11/15 07:53:26;;;;;;;6.50;5.15;;;;;;;8.53;100.00;98823.06;5052578;28;20178;-56
2022/11/15 07:55:53;;;;;;;6.28;4.53;;;;;;;8.65;100.00;98815.50;5052547;28;20178;-56
2022/11/15 07:58:19;;;;;;;10.60;7.35;;;;;;;8.77;100.00;98816.56;5052624;28;20595;-56
2022/11/15 08:00:44;;;;;;;12.35;9.88;;;;;;;8.84;100.00;98821.31;5052709;28;20172;-56
2022/11/15 08:03:17;;;;;;;10.07;6.90;;;;;;;9.01;100.00;98816.06;5052348;28;20180;-56
2022/11/15 08:05:43;;;;;;;8.30;6.00;;;;;;;9.17;99.89;98816.88;5052124;28;20216;-55
2022/11/15 08:08:12;;;;;;;10.98;7.35;;;;;;;9.31;99.91;98821.25;5052583;28;20198;-56
2022/11/15 08:10:37;;;;;;;7.03;6.32;;;;;;;9.46;98.28;98808.31;5052280;28;20243;-55
2022/11/15 08:13:08;;;;;;;8.45;5.75;;;;;;;9.62;98.49;98816.81;5052553;28;20170;-56
2022/11/15 08:15:35;;;;;;;6.25;5.25;;;;;;;9.80;97.62;98813.16;5052482;28;20227;-56
2022/11/15 08:18:09;;;;;;;5.55;5.05;;;;;;;9.97;96.94;98818.16;5052206;28;20177;-55
2022/11/15 08:20:35;;;;;;;5.45;4.93;;;;;;;10.10;95.78;98813.97;5052484;28;20204;-56
2022/11/15 08:23:02;;;;;;;5.60;4.80;;;;;;;10.23;94.67;98817.47;5052162;28;20197;-56
2022/11/15 08:25:30;;;;;;;7.43;6.30;;;;;;;10.33;93.73;98815.97;5050820;28;20666;-56
2022/11/15 08:27:58;;;;;;;11.35;6.07;;;;;;;10.46;94.22;98811.72;5052034;28;20231;-56
2022/11/15 08:30:24;;;;;;;9.63;6.13;;;;;;;10.56;94.13;98810.22;5052212;28;20289;-56
2022/11/15 08:32:51;;;;;;;9.27;7.03;;;;;;;10.60;95.48;98801.31;5052405;28;20173;-56
2022/11/15 08:35:18;;;;;;;9.57;8.00;;;;;;;10.75;96.64;98803.78;5051935;28;20180;-56
2022/11/15 08:37:44;;;;;;;11.68;8.18;;;;;;;10.89;96.23;98805.50;5052159;28;20550;-55
2022/11/15 08:40:09;;;;;;;10.25;7.90;;;;;;;10.95;97.58;98799.94;5051852;28;20252;-56
2022/11/15 08:42:35;;;;;;;12.65;8.98;;;;;;;10.97;98.37;98798.09;5051846;28;20261;-56
2022/11/15 08:45:02;;;;;;;13.85;9.27;;;;;;;11.07;98.69;98796.56;5052087;28;20548;-56
2022/11/15 08:47:27;;;;;;;10.93;8.38;;;;;;;11.23;96.36;98792.91;5051849;28;20177;-57
2022/11/15 08:49:52;;;;;;;13.85;8.77;;;;;;;11.26;96.38;98791.88;5051660;28;20193;-55
2022/11/15 08:52:18;;;;;;;13.35;9.32;;;;;;;11.24;96.44;98784.19;5051997;28;20264;-56
2022/11/15 08:54:44;;;;;;;14.02;11.00;;;;;;;11.37;98.35;98784.22;5049690;28;20256;-55
2022/11/15 08:57:09;;;;;;;15.13;11.05;;;;;;;11.49;99.49;98780.84;5051081;28;20665;-55
2022/11/15 08:59:36;;;;;;;17.25;12.70;;;;;;;11.62;100.00;98781.69;5051695;28;20165;-56
2022/11/15 09:02:01;;;;;;;17.80;12.93;;;;;;;11.74;100.00;98779.09;5051476;28;20737;-56
2022/11/15 09:04:27;;;;;;;21.40;14.32;;;;;;;11.83;100.00;98775.06;5051416;28;20276;-56
2022/11/15 09:06:53;;;;;;;19.33;14.05;;;;;;;11.93;100.00;98763.13;5051466;28;20194;-56
2022/11/15 09:09:18;;;;;;;20.92;14.15;;;;;;;12.00;100.00;98766.97;5052629;28;20586;-56
2022/11/15 09:11:44;;;;;;;21.23;15.27;;;;;;;12.10;100.00;98760.22;5055950;28;20646;-56
2022/11/15 09:14:12;;;;;;;23.17;15.57;;;;;;;12.21;100.00;98752.53;5055694;28;20185;-55
2022/11/15 09:16:37;;;;;;;22.00;15.95;;;;;;;12.29;100.00;98750.22;5055855;28;20192;-56
2022/11/15 09:19:03;;;;;;;25.50;16.77;;;;;;;12.37;100.00;98748.75;5055784;28;20252;-56
2022/11/15 09:21:29;;;;;;;29.17;18.85;;;;;;;12.41;100.00;98747.59;5054180;28;20646;-55
2022/11/15 09:23:55;;;;;;;28.15;18.42;;;;;;;12.49;100.00;98742.69;5055308;28;20261;-56
2022/11/15 09:26:20;;;;;;;28.60;19.00;;;;;;;12.49;100.00;98727.09;5055270;28;20269;-55
2022/11/15 09:28:46;;;;;;;28.17;18.60;;;;;;;12.47;100.00;98734.19;5055454;28;20174;-56
2022/11/15 09:31:11;;;;;;;29.65;20.23;;;;;;;12.47;100.00;98722.97;5055236;28;20174;-55
2022/11/15 09:33:37;;;;;;;28.75;20.13;;;;;;;12.46;100.00;98721.31;5055311;28;20278;-55
2022/11/15 09:36:05;;;;;;;35.50;20.80;;;;;;;12.51;100.00;98724.41;5055419;28;20178;-55
2022/11/15 09:38:31;;;;;;;32.05;21.02;;;;;;;12.52;100.00;98710.50;5054964;28;20182;-55
2022/11/15 09:41:26;;;;;;;32.72;20.67;;;;;;;12.55;100.00;98718.88;5054971;28;20543;-55
2022/11/15 09:44:06;;;;;;;31.25;20.90;;;;;;;12.58;100.00;98715.25;5053226;28;20189;-55
2022/11/15 09:46:50;;;;;;;26.70;19.58;;;;;;;12.70;100.00;98712.59;5055105;28;20212;-55
2022/11/15 09:49:17;;;;;;;31.48;19.67;;;;;;;12.68;100.00;98711.91;5054869;28;20616;-55
2022/11/15 09:51:49;;;;;;;29.67;19.52;;;;;;;12.70;100.00;98709.16;5054931;28;20173;-55
2022/11/15 09:54:23;;;;;;;31.38;20.15;;;;;;;12.84;100.00;98693.44;5053586;28;20173;-55
2022/11/15 09:56:50;;;;;;;28.83;20.45;;;;;;;12.95;100.00;98701.28;5055014;28;20627;-55
2022/11/15 09:59:38;;;;;;;31.17;20.85;;;;;;;12.99;100.00;98697.50;5054795;28;20643;-55
2022/11/15 10:02:04;;;;;;;28.70;20.63;;;;;;;13.05;100.00;98694.47;5054992;28;20551;-55
2022/11/15 10:04:29;;;;;;;28.10;20.55;;;;;;;13.13;100.00;98692.16;5054620;28;20194;-55
2022/11/15 10:07:25;;;;;;;31.85;20.73;;;;;;;13.13;100.00;98692.97;5054545;28;20184;-55
2022/11/15 10:09:56;;;;;;;31.58;20.77;;;;;;;13.23;100.00;98691.34;5054291;28;20267;-55
2022/11/15 10:12:24;;;;;;;33.30;21.02;;;;;;;13.23;100.00;98687.91;5054532;28;20166;-54
2022/11/15 10:15:01;;;;;;;32.90;21.75;;;;;;;13.27;100.00;98678.94;5054384;28;20177;-55
2022/11/15 10:17:51;;;;;;;31.55;21.67;;;;;;;13.32;100.00;98675.06;5053221;28;20224;-55
2022/11/15 10:20:36;;;;;;;31.60;21.10;;;;;;;13.36;100.00;98671.28;5054086;28;20158;-55
2022/11/15 10:23:10;;;;;;;33.50;21.55;;;;;;;13.39;100.00;98667.63;5054244;28;20590;-55
2022/11/15 10:25:36;;;;;;;29.70;20.67;;;;;;;13.34;100.00;98662.78;5054281;28;20165;-55
2022/11/15 10:28:26;;;;;;;31.00;20.88;;;;;;;13.27;100.00;98661.59;5054169;28;20228;-55
2022/11/15 10:30:54;;;;;;;31.85;21.40;;;;;;;13.33;100.00;98662.88;5054083;28;20220;-55
2022/11/15 10:33:46;;;;;;;35.83;23.10;;;;;;;13.36;100.00;98652.28;5054115;28;20702;-55
2022/11/15 10:36:11;;;;;;;35.08;22.52;;;;;;;13.44;100.00;98655.09;5053684;28;20197;-55
2022/11/15 10:38:56;;;;;;;36.40;23.58;;;;;;;13.31;100.00;98654.38;5053924;28;20639;-55
2022/11/15 10:41:31;;;;;;;37.13;24.10;;;;;;;13.35;100.00;98654.03;5054096;28;20153;-55
2022/11/15 10:44:20;;;;;;;30.65;22.13;;;;;;;13.35;100.00;98648.03;5053850;28;20176;-54
2022/11/15 10:46:54;;;;;;;36.97;23.05;;;;;;;13.30;100.00;98650.13;5053940;28;20240;-54
2022/11/15 10:49:21;;;;;;;30.75;21.98;;;;;;;13.31;100.00;98638.78;5053687;28;20182;-54
2022/11/15 10:51:49;;;;;;;32.30;23.50;;;;;;;13.33;100.00;98631.69;5053814;28;20169;-55
2022/11/15 10:54:43;;;;;;;35.63;23.20;;;;;;;13.34;100.00;98628.16;5053584;28;20247;-55
2022/11/15 10:57:18;;;;;;;31.20;22.13;;;;;;;13.35;100.00;98635.84;5038198;28;20232;-55
2022/11/15 10:59:53;;;;;;;31.95;21.75;;;;;;;13.24;100.00;98633.22;5053585;28;20169;-55
2022/11/15 11:02:39;;;;;;;38.45;24.95;;;;;;;13.25;100.00;98623.66;5054022;28;20165;-56
2022/11/15 11:05:24;;;;;;;32.75;23.85;;;;;;;13.22;100.00;98627.31;5053516;28;20204;-55
2022/11/15 11:07:58;;;;;;;31.08;21.00;;;;;;;13.26;100.00;98625.31;5053725;28;20170;-55
2022/11/15 11:10:23;;;;;;;31.25;22.33;;;;;;;13.26;100.00;98614.91;5053619;28;20196;-55
2022/11/15 11:12:49;;;;;;;30.48;21.83;;;;;;;13.26;100.00;98612.31;5053626;28;20166;-55
2022/11/15 11:15:16;;;;;;;30.58;22.27;;;;;;;13.21;100.00;98607.50;5053605;28;20172;-55
2022/11/15 11:18:09;;;;;;;27.60;21.27;;;;;;;13.22;100.00;98613.50;5053570;28;20231;-55
2022/11/15 11:20:34;;;;;;;26.30;19.65;;;;;;;13.29;100.00;98601.72;5053265;28;20643;-55
2022/11/15 11:23:11;;;;;;;28.17;20.60;;;;;;;13.19;100.00;98600.75;5053098;28;20255;-55
2022/11/15 11:25:58;;;;;;;29.50;20.10;;;;;;;13.22;100.00;98600.50;5052234;28;20161;-55
2022/11/15 11:28:32;;;;;;;28.00;18.83;;;;;;;13.16;100.00;98593.16;5053079;28;20728;-55
2022/11/15 11:31:14;;;;;;;30.88;22.17;;;;;;;13.02;100.00;98591.63;5053464;28;20378;-56
2022/11/15 11:34:10;;;;;;;26.35;20.15;;;;;;;12.95;100.00;98592.19;5052797;28;20158;-55
2022/11/15 11:36:57;;;;;;;29.23;21.30;;;;;;;12.90;100.00;98583.91;5052079;28;20192;-56
2022/11/15 11:39:54;;;;;;;30.50;22.63;;;;;;;12.82;100.00;98578.44;5052827;28;20539;-55
2022/11/15 11:42:44;;;;;;;29.83;21.13;;;;;;;12.61;100.00;98569.66;5052607;28;20168;-55
2022/11/15 11:45:35;;;;;;;30.98;21.05;;;;;;;12.63;100.00;98565.19;5052660;28;20158;-55
2022/11/15 11:48:14;;;;;;;30.50;22.40;;;;;;;12.63;100.00;98567.78;5052862;28;20597;-55
2022/11/15 11:50:42;;;;;;;40.35;27.70;;;;;;;12.72;100.00;98569.69;5052656;28;20629;-55